Time;durP1;ratioP1;P1;durP2;ratioP2;P2;SDS_P1;SDS_P2;PMS_P1;PMS_P2;Temp;Humidity;BMP_temperature;BMP_pressure;BME280_temperature;BME280_humidity;BME280_pressure;Samples;Min_cycle;Max_cycle;Signal;HPM_P1;HPM_P2
2021/11/26 00:02:23;;;;;;;3.47;1.15;;;19.70;58.30;;;;;;4740787;30;20199;-79
2021/11/26 00:04:50;;;;;;;2.70;1.10;;;19.70;58.40;;;;;;4740541;30;20164;-79
2021/11/26 00:07:18;;;;;;;3.30;1.08;;;19.70;58.60;;;;;;4718301;30;1146070;-81
2021/11/26 00:09:44;;;;;;;3.75;1.40;;;19.70;58.50;;;;;;4743117;30;20176;-79
2021/11/26 00:12:11;;;;;;;5.18;1.52;;;19.60;58.40;;;;;;4757296;30;20246;-79
2021/11/26 00:14:44;;;;;;;4.00;1.02;;;19.70;58.40;;;;;;4772898;30;20574;-79
2021/11/26 00:17:16;;;;;;;3.55;1.40;;;19.70;58.00;;;;;;4773136;30;20195;-79
2021/11/26 00:19:43;;;;;;;4.13;1.30;;;19.70;58.50;;;;;;4757530;30;20243;-79
2021/11/26 00:22:08;;;;;;;5.75;1.50;;;19.70;58.80;;;;;;4773185;30;20296;-79
2021/11/26 00:24:34;;;;;;;4.13;1.02;;;19.60;58.70;;;;;;4741720;30;20249;-79
2021/11/26 00:26:59;;;;;;;3.38;1.15;;;19.70;59.10;;;;;;4772754;30;20164;-79
2021/11/26 00:29:25;;;;;;;3.70;1.20;;;19.70;59.10;;;;;;4773163;30;20644;-79
2021/11/26 00:31:51;;;;;;;4.13;1.55;;;19.70;59.50;;;;;;4773638;30;20179;-79
2021/11/26 00:34:16;;;;;;;2.75;1.35;;;19.60;58.90;;;;;;4757054;30;20585;-80
2021/11/26 00:36:42;;;;;;;3.42;1.13;;;19.70;58.60;;;;;;4772559;30;20168;-79
2021/11/26 00:39:08;;;;;;;5.95;1.30;;;19.70;58.90;;;;;;4773139;30;20168;-79
2021/11/26 00:41:33;;;;;;;7.78;2.00;;;19.70;59.00;;;;;;4772762;30;20547;-79
2021/11/26 00:43:59;;;;;;;5.70;1.38;;;19.60;58.80;;;;;;4773094;30;20196;-79
2021/11/26 00:46:25;;;;;;;2.33;1.10;;;19.70;59.10;;;;;;4756433;30;20519;-79
2021/11/26 00:48:50;;;;;;;3.08;1.30;;;19.60;58.90;;;;;;4772464;30;20168;-79
2021/11/26 00:51:16;;;;;;;1.67;1.05;;;19.60;58.80;;;;;;4772826;30;20499;-79
2021/11/26 00:53:42;;;;;;;2.35;1.10;;;19.60;58.90;;;;;;4772686;30;20234;-79
2021/11/26 00:56:07;;;;;;;1.58;1.10;;;19.60;59.00;;;;;;4772778;30;20648;-79
2021/11/26 00:58:33;;;;;;;4.75;1.35;;;19.60;58.90;;;;;;4756418;30;20172;-79
2021/11/26 01:00:59;;;;;;;3.30;1.10;;;19.60;58.70;;;;;;4772716;30;20203;-79
2021/11/26 01:03:24;;;;;;;3.20;0.98;;;19.70;59.10;;;;;;4741753;30;20196;-79
2021/11/26 01:05:50;;;;;;;2.60;1.20;;;19.60;58.30;;;;;;4756505;30;20229;-79
2021/11/26 01:08:17;;;;;;;3.13;1.20;;;19.60;58.90;;;;;;4772370;30;20255;-79
2021/11/26 01:10:44;;;;;;;2.75;1.30;;;19.60;58.80;;;;;;4741932;30;20168;-79
2021/11/26 01:13:09;;;;;;;5.75;1.52;;;19.60;58.80;;;;;;4756706;30;20684;-79
2021/11/26 01:15:39;;;;;;;3.33;1.20;;;19.60;59.20;;;;;;4775600;30;20207;-79
2021/11/26 01:18:05;;;;;;;2.47;1.50;;;19.60;58.50;;;;;;4759916;30;20182;-79
2021/11/26 01:20:32;;;;;;;3.40;1.10;;;19.60;58.30;;;;;;4775926;30;20202;-79
2021/11/26 01:22:58;;;;;;;4.38;1.33;;;19.60;58.70;;;;;;4759834;30;20569;-79
2021/11/26 01:25:24;;;;;;;2.83;1.17;;;19.60;58.60;;;;;;4759565;30;20172;-79
2021/11/26 01:27:50;;;;;;;2.15;1.00;;;19.60;58.70;;;;;;4776029;30;20172;-79
2021/11/26 01:30:29;;;;;;;2.47;1.02;;;19.60;58.80;;;;;;4775801;30;20171;-79
2021/11/26 01:32:56;;;;;;;3.92;1.23;;;19.60;58.80;;;;;;4760891;30;20263;-79
2021/11/26 01:35:21;;;;;;;2.97;1.20;;;19.60;58.70;;;;;;4775876;30;20219;-79
2021/11/26 01:37:47;;;;;;;2.33;1.20;;;19.60;58.80;;;;;;4744860;30;20184;-79
2021/11/26 01:40:13;;;;;;;3.20;1.48;;;19.60;58.70;;;;;;4758962;30;20170;-79
2021/11/26 01:42:39;;;;;;;2.83;1.27;;;19.60;58.70;;;;;;4759470;30;20200;-79
2021/11/26 01:45:05;;;;;;;4.85;1.38;;;19.60;58.70;;;;;;4775821;30;20241;-79
2021/11/26 01:47:32;;;;;;;3.10;1.10;;;19.60;58.60;;;;;;4759332;30;20165;-79
2021/11/26 01:49:57;;;;;;;2.17;1.40;;;19.60;58.50;;;;;;4759519;30;20263;-79
2021/11/26 01:52:24;;;;;;;3.65;1.30;;;19.60;58.50;;;;;;4759212;30;20636;-80
2021/11/26 01:54:49;;;;;;;2.00;1.13;;;19.60;58.40;;;;;;4775733;30;20183;-79
2021/11/26 01:57:17;;;;;;;5.28;1.25;;;19.60;58.70;;;;;;4775593;30;20196;-79
2021/11/26 01:59:42;;;;;;;2.28;1.40;;;19.60;58.50;;;;;;4758885;30;20176;-80
2021/11/26 02:02:09;;;;;;;3.83;1.27;;;19.60;58.60;;;;;;4759121;30;20173;-79
2021/11/26 02:04:34;;;;;;;1.73;0.95;;;19.60;58.50;;;;;;4758986;30;20153;-80
2021/11/26 02:07:00;;;;;;;2.60;1.30;;;19.60;58.80;;;;;;4775089;30;20223;-80
2021/11/26 02:09:25;;;;;;;2.05;1.10;;;19.60;58.50;;;;;;4759078;30;20621;-79
2021/11/26 02:11:51;;;;;;;2.45;1.10;;;19.60;58.60;;;;;;4758989;30;20230;-80
2021/11/26 02:14:17;;;;;;;3.05;1.00;;;19.60;58.60;;;;;;4775382;30;20192;-79
2021/11/26 02:16:44;;;;;;;4.28;1.30;;;19.60;58.60;;;;;;4758861;30;20615;-79
2021/11/26 02:19:12;;;;;;;2.63;1.05;;;19.60;58.50;;;;;;4775126;30;20171;-79
2021/11/26 02:21:37;;;;;;;4.30;1.48;;;19.60;58.60;;;;;;4759050;30;20223;-79
2021/11/26 02:24:03;;;;;;;3.80;1.10;;;19.60;58.40;;;;;;4759090;30;20196;-80
2021/11/26 02:26:29;;;;;;;4.25;1.10;;;19.60;58.60;;;;;;4774444;30;20168;-79
2021/11/26 02:28:55;;;;;;;5.35;1.35;;;19.60;58.40;;;;;;4774800;30;20172;-79
2021/11/26 02:31:20;;;;;;;3.10;1.20;;;19.60;58.50;;;;;;4758229;30;20640;-80
2021/11/26 02:33:46;;;;;;;3.33;1.20;;;19.60;58.40;;;;;;4758507;30;20540;-79
2021/11/26 02:36:12;;;;;;;3.25;1.50;;;19.60;58.50;;;;;;4743928;30;20513;-80
2021/11/26 02:38:37;;;;;;;1.92;0.90;;;19.60;58.30;;;;;;4774279;30;20538;-79
2021/11/26 02:41:03;;;;;;;4.00;1.25;;;19.60;58.30;;;;;;4774675;30;20602;-79
2021/11/26 02:43:29;;;;;;;4.00;1.40;;;19.60;58.20;;;;;;4774702;30;20634;-79
2021/11/26 02:45:54;;;;;;;2.10;1.17;;;19.60;58.40;;;;;;4743462;30;20175;-80
2021/11/26 02:48:20;;;;;;;2.92;1.13;;;19.60;58.60;;;;;;4774361;30;20163;-79
2021/11/26 02:50:46;;;;;;;2.58;1.20;;;19.60;58.30;;;;;;4743947;30;20195;-79
2021/11/26 02:53:11;;;;;;;4.53;1.60;;;19.50;58.40;;;;;;4743869;30;20212;-79
2021/11/26 02:55:38;;;;;;;1.52;1.10;;;19.50;58.50;;;;;;4774355;30;20180;-79
2021/11/26 02:58:04;;;;;;;3.03;1.10;;;19.50;58.60;;;;;;4758039;30;20164;-79
2021/11/26 03:00:30;;;;;;;3.05;1.30;;;19.60;58.40;;;;;;4774039;30;20169;-79
2021/11/26 03:02:56;;;;;;;2.67;1.23;;;19.50;58.70;;;;;;4757942;30;20211;-79
2021/11/26 03:05:22;;;;;;;3.83;1.15;;;19.50;58.50;;;;;;4758350;30;20328;-79
2021/11/26 03:07:47;;;;;;;1.60;1.00;;;19.50;58.60;;;;;;4742953;30;20597;-79
2021/11/26 03:10:17;;;;;;;3.80;1.40;;;19.50;58.30;;;;;;4758144;30;20192;-79
2021/11/26 03:12:46;;;;;;;3.00;1.10;;;19.50;58.50;;;;;;4774294;30;20199;-79
2021/11/26 03:15:12;;;;;;;1.80;1.00;;;19.50;58.70;;;;;;4774045;30;20214;-79
2021/11/26 03:17:38;;;;;;;3.88;1.15;;;19.50;58.50;;;;;;4774224;30;20164;-79
2021/11/26 03:20:04;;;;;;;2.10;1.20;;;19.50;58.50;;;;;;4757656;30;20160;-80
2021/11/26 03:22:30;;;;;;;2.33;1.33;;;19.50;58.30;;;;;;4757971;30;20216;-79
2021/11/26 03:24:56;;;;;;;2.50;1.02;;;19.50;58.40;;;;;;4774000;30;20171;-79
2021/11/26 03:27:21;;;;;;;2.10;1.20;;;19.50;58.60;;;;;;4774008;30;20196;-79
2021/11/26 03:29:47;;;;;;;3.72;1.10;;;19.50;58.70;;;;;;4757586;30;20161;-80
2021/11/26 03:32:13;;;;;;;1.75;1.10;;;19.50;58.70;;;;;;4773426;30;20174;-79
2021/11/26 03:34:38;;;;;;;3.28;1.30;;;19.50;58.50;;;;;;4773618;30;20168;-79
2021/11/26 03:37:04;;;;;;;2.10;1.33;;;19.50;58.60;;;;;;4773123;30;20188;-79
2021/11/26 03:39:30;;;;;;;2.90;1.20;;;19.50;58.50;;;;;;4757317;30;20655;-79
2021/11/26 03:41:55;;;;;;;2.45;1.27;;;19.60;58.60;;;;;;4773494;30;20588;-79
2021/11/26 03:44:23;;;;;;;2.92;1.17;;;19.50;58.60;;;;;;4774060;30;20168;-79
2021/11/26 03:46:49;;;;;;;3.20;1.17;;;19.50;58.50;;;;;;4773929;30;20164;-80
2021/11/26 03:49:14;;;;;;;2.65;1.10;;;19.50;58.30;;;;;;4773942;30;20311;-79
2021/11/26 03:51:40;;;;;;;2.00;1.20;;;19.50;58.30;;;;;;4773526;30;20527;-80
2021/11/26 03:54:06;;;;;;;2.88;1.20;;;19.50;58.40;;;;;;4773545;30;21156;-80
2021/11/26 03:56:31;;;;;;;3.03;1.20;;;19.50;58.30;;;;;;4773642;30;20587;-79
2021/11/26 03:58:58;;;;;;;3.47;1.10;;;19.50;58.50;;;;;;4773551;30;20172;-79
2021/11/26 04:01:24;;;;;;;2.28;1.30;;;19.50;58.30;;;;;;4772198;30;20544;-80
2021/11/26 04:03:49;;;;;;;2.08;1.17;;;19.50;58.20;;;;;;4773107;30;20207;-80
2021/11/26 04:06:15;;;;;;;1.98;1.00;;;19.50;58.30;;;;;;4773532;30;20179;-79
2021/11/26 04:08:42;;;;;;;1.80;1.13;;;19.50;58.30;;;;;;4772666;30;20775;-79
2021/11/26 04:11:07;;;;;;;2.05;1.08;;;19.50;58.30;;;;;;4773190;30;20171;-79
2021/11/26 04:13:33;;;;;;;4.05;1.27;;;19.50;58.20;;;;;;4772852;30;20199;-79
2021/11/26 04:16:05;;;;;;;2.55;1.10;;;19.60;57.30;;;;;;4756699;30;20548;-80
2021/11/26 04:18:33;;;;;;;2.90;1.38;;;19.50;57.10;;;;;;4772898;30;20513;-79
2021/11/26 04:21:01;;;;;;;1.88;0.95;;;19.50;56.30;;;;;;4742429;30;20191;-80
2021/11/26 04:23:26;;;;;;;2.55;1.40;;;19.60;56.80;;;;;;4756724;30;20263;-80
2021/11/26 04:25:52;;;;;;;2.40;1.00;;;19.60;56.90;;;;;;4772984;30;20594;-79
2021/11/26 04:28:18;;;;;;;1.58;1.15;;;19.60;57.10;;;;;;4772851;30;20530;-80
2021/11/26 04:30:43;;;;;;;4.38;1.30;;;19.60;57.00;;;;;;4773005;30;20217;-79
2021/11/26 04:33:09;;;;;;;2.58;0.90;;;19.60;57.40;;;;;;4772963;30;20643;-79
2021/11/26 04:35:36;;;;;;;2.78;1.10;;;19.60;57.30;;;;;;4773240;30;20211;-80
2021/11/26 04:38:01;;;;;;;1.98;1.00;;;19.60;57.60;;;;;;4756908;30;20232;-79
2021/11/26 04:40:28;;;;;;;2.50;1.08;;;19.60;57.70;;;;;;4772392;30;20259;-79
2021/11/26 04:42:54;;;;;;;1.80;1.20;;;19.60;58.00;;;;;;4757028;30;20679;-79
2021/11/26 04:45:19;;;;;;;1.88;1.02;;;19.60;58.00;;;;;;4772985;30;20168;-80
2021/11/26 04:47:45;;;;;;;1.98;1.08;;;19.60;57.70;;;;;;4772721;30;20234;-79
2021/11/26 04:50:11;;;;;;;1.70;1.10;;;19.60;57.50;;;;;;4745627;30;20165;-80
2021/11/26 04:52:37;;;;;;;2.20;0.93;;;19.70;57.30;;;;;;4759913;30;20210;-80
2021/11/26 04:55:04;;;;;;;3.10;1.08;;;19.70;57.30;;;;;;4776014;30;20176;-80
2021/11/26 04:57:29;;;;;;;3.30;1.20;;;19.70;57.30;;;;;;4759770;30;20161;-80
2021/11/26 04:59:55;;;;;;;2.17;1.20;;;19.70;57.20;;;;;;4776301;30;20206;-80
2021/11/26 05:02:21;;;;;;;2.10;1.10;;;19.70;57.10;;;;;;4774419;30;20222;-79
2021/11/26 05:04:47;;;;;;;3.13;1.05;;;19.70;57.30;;;;;;4774588;30;20168;-79
2021/11/26 05:07:13;;;;;;;2.35;0.90;;;19.70;56.60;;;;;;4774383;30;20235;-79
2021/11/26 05:09:39;;;;;;;2.05;1.23;;;19.70;56.60;;;;;;4758242;30;20648;-80
2021/11/26 05:12:05;;;;;;;2.55;1.02;;;19.70;57.00;;;;;;4758979;30;20180;-79
2021/11/26 05:14:32;;;;;;;2.95;1.20;;;19.70;57.20;;;;;;4774335;30;20169;-79
2021/11/26 05:16:58;;;;;;;1.45;0.90;;;19.70;57.00;;;;;;4758444;30;20307;-80
2021/11/26 05:19:23;;;;;;;1.30;0.90;;;19.70;57.00;;;;;;4774457;30;20254;-80
2021/11/26 05:21:49;;;;;;;1.92;0.88;;;19.70;57.10;;;;;;4774432;30;20177;-79
2021/11/26 05:24:15;;;;;;;1.30;1.08;;;19.70;57.30;;;;;;4774307;30;20682;-80
2021/11/26 05:26:40;;;;;;;2.45;1.00;;;19.70;57.20;;;;;;4774372;30;20164;-79
2021/11/26 05:29:08;;;;;;;1.58;1.20;;;19.70;56.60;;;;;;4758057;30;20621;-79
2021/11/26 05:31:36;;;;;;;3.15;1.05;;;19.70;56.70;;;;;;4758156;30;20161;-80
2021/11/26 05:34:04;;;;;;;2.92;1.10;;;19.70;57.00;;;;;;4744123;30;20588;-79
2021/11/26 05:36:29;;;;;;;2.20;1.17;;;19.70;57.10;;;;;;4774074;30;20169;-79
2021/11/26 05:38:55;;;;;;;1.88;1.00;;;19.70;57.10;;;;;;4774182;30;20572;-80
2021/11/26 05:41:21;;;;;;;2.03;1.25;;;19.70;56.90;;;;;;4774183;30;20263;-80
2021/11/26 05:43:46;;;;;;;1.50;0.90;;;19.80;56.60;;;;;;4774145;30;20207;-79
2021/11/26 05:46:14;;;;;;;2.33;1.20;;;19.80;56.50;;;;;;4773785;30;20564;-80
2021/11/26 05:48:40;;;;;;;1.38;1.00;;;19.80;56.50;;;;;;4773680;30;20191;-79
2021/11/26 05:51:06;;;;;;;3.22;1.10;;;19.80;56.30;;;;;;4757592;30;20165;-80
2021/11/26 05:53:31;;;;;;;1.95;1.08;;;19.80;56.20;;;;;;4757532;30;20180;-79
2021/11/26 05:55:59;;;;;;;1.85;0.90;;;19.80;56.60;;;;;;4757574;30;20200;-79
2021/11/26 05:58:25;;;;;;;1.63;1.08;;;19.80;56.60;;;;;;4773636;30;20160;-80
2021/11/26 06:00:51;;;;;;;1.63;1.20;;;19.80;56.60;;;;;;4773177;30;20187;-79
2021/11/26 06:03:16;;;;;;;1.20;0.90;;;19.80;55.80;;;;;;4757500;30;20723;-79
2021/11/26 06:05:42;;;;;;;1.40;1.10;;;19.80;56.60;;;;;;4757423;30;20169;-79
2021/11/26 06:08:08;;;;;;;1.95;0.95;;;19.80;56.50;;;;;;4773426;30;20311;-80
2021/11/26 06:10:33;;;;;;;1.52;1.02;;;19.80;56.70;;;;;;4757643;30;20163;-80
2021/11/26 06:12:59;;;;;;;1.85;1.10;;;19.80;56.60;;;;;;4757498;30;20169;-79
2021/11/26 06:15:25;;;;;;;1.30;1.10;;;19.80;56.20;;;;;;4757365;30;20164;-79
2021/11/26 06:17:50;;;;;;;1.45;1.00;;;19.80;55.90;;;;;;4757854;30;20308;-80
2021/11/26 06:20:16;;;;;;;2.33;1.30;;;19.80;56.20;;;;;;4773696;30;20624;-80
2021/11/26 06:22:42;;;;;;;2.40;1.17;;;19.80;56.10;;;;;;4773738;30;20222;-79
2021/11/26 06:25:09;;;;;;;1.30;1.00;;;19.80;56.40;;;;;;4773879;30;20267;-80
2021/11/26 06:27:36;;;;;;;2.33;1.10;;;19.80;56.10;;;;;;4773575;30;20157;-79
2021/11/26 06:30:04;;;;;;;1.52;0.93;;;19.80;56.30;;;;;;4757703;30;20168;-79
2021/11/26 06:32:30;;;;;;;2.35;0.90;;;19.80;55.70;;;;;;4757235;30;20180;-80
2021/11/26 06:34:56;;;;;;;2.28;1.20;;;19.80;55.70;;;;;;4742165;30;20177;-80
2021/11/26 06:37:23;;;;;;;1.63;0.80;;;19.80;55.50;;;;;;4757162;30;20190;-80
2021/11/26 06:39:48;;;;;;;2.33;0.90;;;19.80;55.00;;;;;;4773265;30;20217;-80
2021/11/26 06:42:14;;;;;;;1.50;1.10;;;19.80;55.50;;;;;;4772870;30;20172;-80
2021/11/26 06:44:40;;;;;;;1.13;1.00;;;19.80;55.60;;;;;;4772827;30;20250;-80
2021/11/26 06:47:06;;;;;;;1.35;0.98;;;19.80;55.70;;;;;;4756764;30;20168;-80
2021/11/26 06:49:31;;;;;;;2.42;0.80;;;19.80;55.50;;;;;;4756717;30;20168;-80
2021/11/26 06:51:57;;;;;;;0.98;0.80;;;19.80;55.80;;;;;;4756725;30;20259;-80
2021/11/26 06:54:23;;;;;;;1.77;1.00;;;19.80;55.80;;;;;;4772595;30;20172;-80
2021/11/26 06:56:48;;;;;;;1.20;1.00;;;19.80;55.40;;;;;;4772934;30;20621;-80
2021/11/26 06:59:14;;;;;;;2.55;1.05;;;19.80;55.30;;;;;;4776693;30;20625;-80
2021/11/26 07:01:41;;;;;;;1.10;1.00;;;19.80;54.80;;;;;;4769885;30;20217;-80
2021/11/26 07:04:09;;;;;;;3.92;1.20;;;19.80;55.00;;;;;;4789297;30;20187;-80
2021/11/26 07:06:35;;;;;;;2.40;1.35;;;19.80;55.20;;;;;;4791040;30;20163;-81
2021/11/26 07:09:02;;;;;;;3.70;1.65;;;19.80;55.30;;;;;;4776712;30;20174;-80
2021/11/26 07:11:27;;;;;;;4.55;1.30;;;19.80;56.20;;;;;;4793380;29;20163;-80
2021/11/26 07:13:53;;;;;;;5.03;1.60;;;19.90;55.10;;;;;;4791924;30;20178;-80
2021/11/26 07:16:19;;;;;;;5.07;1.58;;;19.90;55.60;;;;;;4793805;30;20200;-80
2021/11/26 07:18:45;;;;;;;3.35;1.48;;;19.90;56.10;;;;;;4791480;30;20187;-80
2021/11/26 07:21:13;;;;;;;6.18;1.80;;;19.80;55.90;;;;;;4775390;30;20647;-80
2021/11/26 07:23:38;;;;;;;4.20;1.40;;;19.80;55.80;;;;;;4777147;30;20200;-79
2021/11/26 07:26:04;;;;;;;5.80;1.42;;;19.80;56.50;;;;;;4793232;30;20170;-80
2021/11/26 07:28:30;;;;;;;4.63;1.40;;;19.80;55.80;;;;;;4794957;30;20249;-78
2021/11/26 07:30:56;;;;;;;2.55;1.33;;;19.80;56.90;;;;;;4793723;30;20187;-81
2021/11/26 07:33:21;;;;;;;3.03;1.48;;;19.80;55.90;;;;;;4795747;30;20171;-81
2021/11/26 07:35:47;;;;;;;3.63;1.30;;;19.80;56.60;;;;;;4767337;30;20239;-80
2021/11/26 07:38:13;;;;;;;1.50;0.93;;;19.70;56.90;;;;;;4766661;30;20283;-81
2021/11/26 07:40:39;;;;;;;2.20;1.30;;;19.80;56.70;;;;;;4780754;30;20307;-80
2021/11/26 07:43:05;;;;;;;1.63;1.15;;;19.70;56.90;;;;;;4796832;30;20334;-79
2021/11/26 07:45:33;;;;;;;1.90;1.17;;;19.70;56.30;;;;;;4780500;30;20205;-79
2021/11/26 07:47:59;;;;;;;1.98;1.08;;;19.70;55.90;;;;;;4781541;30;20179;-81
2021/11/26 07:50:25;;;;;;;2.92;1.10;;;19.70;56.50;;;;;;4795478;30;20183;-81
2021/11/26 07:52:51;;;;;;;1.35;0.90;;;19.70;56.60;;;;;;4780598;30;20194;-81
2021/11/26 07:55:17;;;;;;;2.13;1.27;;;19.70;56.30;;;;;;4765583;30;20271;-81
2021/11/26 07:57:44;;;;;;;3.00;1.00;;;19.70;56.90;;;;;;4746033;30;20182;-82
2021/11/26 08:00:11;;;;;;;3.58;1.27;;;19.70;57.30;;;;;;4794204;30;20168;-82
2021/11/26 08:02:40;;;;;;;2.22;1.20;;;19.70;55.80;;;;;;4781912;30;20203;-82
2021/11/26 08:05:10;;;;;;;1.55;1.23;;;19.70;56.10;;;;;;4797239;30;20178;-82
2021/11/26 08:07:37;;;;;;;1.67;1.08;;;19.70;56.10;;;;;;4782388;30;20266;-82
2021/11/26 08:10:20;;;;;;;1.27;0.85;;;19.70;57.10;;;;;;4767595;30;20180;-82
2021/11/26 08:12:46;;;;;;;2.35;1.10;;;19.70;57.60;;;;;;4783453;30;20176;-84
2021/11/26 08:15:13;;;;;;;3.03;1.20;;;19.70;58.10;;;;;;4767225;30;20208;-84
2021/11/26 08:17:42;;;;;;;5.10;1.17;;;19.70;58.10;;;;;;4792351;30;20164;-82
2021/11/26 08:20:08;;;;;;;2.78;1.27;;;19.70;57.90;;;;;;4790731;30;20171;-82
2021/11/26 08:22:34;;;;;;;1.95;1.30;;;19.70;58.30;;;;;;4792201;30;20188;-82
2021/11/26 08:24:59;;;;;;;3.72;1.30;;;19.70;58.30;;;;;;4775504;30;20155;-83
2021/11/26 08:27:26;;;;;;;1.70;1.17;;;19.70;58.90;;;;;;4795879;30;20222;-83
2021/11/26 08:29:52;;;;;;;2.05;1.27;;;19.70;57.60;;;;;;4778233;30;20186;-83
2021/11/26 08:32:18;;;;;;;3.72;1.40;;;19.70;58.70;;;;;;4777267;30;20172;-82
2021/11/26 08:34:43;;;;;;;4.25;1.50;;;19.70;58.70;;;;;;4792225;30;20175;-82
2021/11/26 08:37:10;;;;;;;2.22;1.30;;;19.70;57.90;;;;;;4777536;30;20168;-83
2021/11/26 08:39:36;;;;;;;2.90;1.30;;;19.70;58.00;;;;;;4762409;30;20179;-84
2021/11/26 08:42:02;;;;;;;4.63;1.20;;;19.70;57.60;;;;;;4777189;30;20300;-83
2021/11/26 08:44:27;;;;;;;2.38;0.95;;;19.60;57.00;;;;;;4792460;30;20196;-82
2021/11/26 08:46:53;;;;;;;2.65;1.20;;;19.60;57.00;;;;;;4775983;30;20164;-83
2021/11/26 08:49:19;;;;;;;2.38;1.10;;;19.60;57.10;;;;;;4791035;30;20167;-82
2021/11/26 08:51:47;;;;;;;3.13;1.25;;;19.60;56.70;;;;;;4775074;30;20156;-82
2021/11/26 08:54:13;;;;;;;2.75;1.35;;;19.70;57.40;;;;;;4791686;30;20615;-84
2021/11/26 08:56:39;;;;;;;2.78;1.10;;;19.70;56.90;;;;;;4790435;30;20230;-83
2021/11/26 08:59:04;;;;;;;2.55;1.10;;;19.70;56.90;;;;;;4760806;30;20556;-83
2021/11/26 09:01:31;;;;;;;1.92;1.15;;;19.70;57.50;;;;;;4790892;30;20168;-83
2021/11/26 09:03:57;;;;;;;3.30;1.40;;;19.70;57.50;;;;;;4761365;30;20210;-81
2021/11/26 09:06:24;;;;;;;2.17;1.00;;;19.70;57.20;;;;;;4778064;30;20179;-83
2021/11/26 09:08:50;;;;;;;1.67;1.02;;;19.70;57.00;;;;;;4792114;30;20217;-83
2021/11/26 09:11:16;;;;;;;2.08;1.20;;;19.70;57.10;;;;;;4776906;30;20168;-82
2021/11/26 09:13:42;;;;;;;2.70;1.10;;;19.70;57.10;;;;;;4778411;30;20171;-83
2021/11/26 09:16:08;;;;;;;4.45;1.35;;;19.70;56.90;;;;;;4763387;30;20207;-83
2021/11/26 09:18:34;;;;;;;3.22;1.27;;;19.70;58.10;;;;;;4793664;30;20168;-83
2021/11/26 09:21:00;;;;;;;3.08;1.30;;;19.70;58.20;;;;;;4763735;30;20176;-83
2021/11/26 09:23:26;;;;;;;3.45;1.02;;;19.70;57.70;;;;;;4778379;30;20199;-83
2021/11/26 09:25:55;;;;;;;2.33;1.17;;;19.80;57.20;;;;;;4794747;30;20172;-83
2021/11/26 09:28:21;;;;;;;1.63;1.25;;;19.70;57.50;;;;;;4795469;30;20163;-84
2021/11/26 09:30:48;;;;;;;2.67;1.20;;;19.80;57.60;;;;;;4779120;30;20171;-84
2021/11/26 09:33:14;;;;;;;2.25;1.25;;;19.70;57.40;;;;;;4764511;30;20264;-84
2021/11/26 09:35:40;;;;;;;1.60;1.10;;;19.70;57.30;;;;;;4795087;29;20171;-83
2021/11/26 09:38:09;;;;;;;3.25;1.23;;;19.80;57.90;;;;;;4795762;30;20639;-83
2021/11/26 09:40:34;;;;;;;2.03;1.20;;;19.80;57.70;;;;;;4796573;30;20606;-82
2021/11/26 09:43:00;;;;;;;2.33;1.08;;;19.70;57.70;;;;;;4767953;30;20207;-83
2021/11/26 09:45:27;;;;;;;1.45;1.02;;;19.70;57.50;;;;;;4796748;30;20187;-83
2021/11/26 09:47:53;;;;;;;2.92;1.38;;;19.80;57.70;;;;;;4779572;30;20631;-82
2021/11/26 09:50:24;;;;;;;3.28;1.23;;;19.80;58.20;;;;;;4780732;30;20202;-82
2021/11/26 09:52:50;;;;;;;2.08;1.30;;;19.80;58.40;;;;;;4795840;30;20238;-82
2021/11/26 09:55:23;;;;;;;5.38;1.30;;;19.80;58.30;;;;;;4795601;30;20188;-82
2021/11/26 09:57:53;;;;;;;2.70;1.23;;;19.80;58.00;;;;;;4779735;30;20195;-83
2021/11/26 10:00:19;;;;;;;3.08;1.48;;;19.80;58.60;;;;;;4795899;30;20230;-83
2021/11/26 10:02:57;;;;;;;3.05;1.40;;;19.80;58.10;;;;;;4780672;30;20211;-84
2021/11/26 10:05:23;;;;;;;2.38;1.02;;;19.80;57.90;;;;;;4780114;30;20255;-84
2021/11/26 10:07:50;;;;;;;1.73;1.30;;;19.80;58.00;;;;;;4779903;30;20254;-82
2021/11/26 10:10:22;;;;;;;3.92;0.75;;;19.80;58.00;;;;;;4763227;30;20172;-82
2021/11/26 10:13:06;;;;;;;2.55;1.30;;;19.90;57.40;;;;;;4761512;30;20266;-83
2021/11/26 10:15:34;;;;;;;2.85;1.20;;;19.80;58.30;;;;;;4745020;30;20668;-83
2021/11/26 10:18:05;;;;;;;1.92;1.27;;;19.90;58.40;;;;;;4732076;30;20573;-82
2021/11/26 10:20:31;;;;;;;2.40;1.23;;;19.80;58.50;;;;;;4759724;30;20571;-83
2021/11/26 10:22:57;;;;;;;3.17;1.30;;;19.80;57.80;;;;;;4729723;30;20258;-82
2021/11/26 10:25:22;;;;;;;1.50;1.20;;;19.80;58.40;;;;;;4775068;30;20206;-82
2021/11/26 10:27:57;;;;;;;2.58;1.05;;;19.80;57.80;;;;;;4762977;30;20210;-81
2021/11/26 10:30:28;;;;;;;3.00;1.23;;;19.80;58.20;;;;;;4782207;30;20220;-81
2021/11/26 10:32:58;;;;;;;3.03;1.27;;;19.80;58.30;;;;;;4796874;30;20163;-82
2021/11/26 10:35:29;;;;;;;3.80;1.30;;;19.90;58.20;;;;;;4783123;30;20164;-81
2021/11/26 10:37:59;;;;;;;1.40;1.00;;;19.90;58.20;;;;;;4782718;30;20206;-82
2021/11/26 10:40:26;;;;;;;2.58;1.10;;;19.80;58.70;;;;;;4781617;30;20243;-82
2021/11/26 10:42:52;;;;;;;1.77;1.30;;;19.90;57.80;;;;;;4782038;30;20668;-82
2021/11/26 10:45:33;;;;;;;3.38;1.00;;;19.90;59.30;;;;;;4796277;29;20185;-81
2021/11/26 10:48:21;;;;;;;1.38;1.05;;;19.80;58.70;;;;;;4782637;30;20242;-82
2021/11/26 10:50:59;;;;;;;2.40;1.20;;;19.90;57.50;;;;;;4798318;30;20210;-82
2021/11/26 10:58:54;;;;;;;2.45;1.30;;;19.90;58.20;;;;;;4796486;30;20175;-82
2021/11/26 11:01:20;;;;;;;1.20;0.80;;;19.90;57.80;;;;;;4782206;30;20342;-82
2021/11/26 11:03:46;;;;;;;2.10;1.00;;;19.90;57.30;;;;;;4796438;30;20219;-81
2021/11/26 11:06:20;;;;;;;2.67;1.17;;;19.90;57.20;;;;;;4782109;30;20183;-81
2021/11/26 11:08:58;;;;;;;1.50;1.02;;;19.90;57.50;;;;;;4780610;30;20235;-82
2021/11/26 11:11:24;;;;;;;2.90;1.23;;;19.90;58.20;;;;;;4796030;30;20167;-81
2021/11/26 11:13:53;;;;;;;1.90;1.15;;;19.90;57.60;;;;;;4781842;30;20262;-82
2021/11/26 11:16:19;;;;;;;2.55;1.30;;;19.90;58.10;;;;;;4795752;30;20167;-82
2021/11/26 11:18:44;;;;;;;3.00;1.30;;;19.90;58.90;;;;;;4782809;30;20188;-83
2021/11/26 11:21:10;;;;;;;1.92;1.00;;;19.80;58.30;;;;;;4781621;30;20191;-83
2021/11/26 11:23:37;;;;;;;2.63;1.40;;;19.90;58.00;;;;;;4796215;30;20195;-82
2021/11/26 11:26:06;;;;;;;2.25;1.20;;;19.90;58.20;;;;;;4796067;30;20191;-82
2021/11/26 11:28:31;;;;;;;2.35;1.10;;;19.90;58.20;;;;;;4796466;30;20188;-83
2021/11/26 11:30:57;;;;;;;1.10;0.93;;;19.90;57.90;;;;;;4781733;30;20546;-83
2021/11/26 11:33:23;;;;;;;1.95;1.00;;;19.90;57.80;;;;;;4796943;30;20176;-82
2021/11/26 11:35:49;;;;;;;2.38;1.45;;;19.90;57.60;;;;;;4782420;30;20171;-82
2021/11/26 11:38:17;;;;;;;1.50;1.10;;;19.90;58.30;;;;;;4797359;30;20180;-82
2021/11/26 11:40:46;;;;;;;2.83;1.02;;;19.90;57.80;;;;;;4781375;30;20168;-81
2021/11/26 11:43:22;;;;;;;2.90;1.00;;;19.90;58.60;;;;;;4766239;30;20260;-82
2021/11/26 11:45:59;;;;;;;4.13;1.20;;;19.90;58.50;;;;;;4796164;30;20522;-82
2021/11/26 11:48:27;;;;;;;3.75;1.20;;;19.90;58.30;;;;;;4766616;30;20167;-81
2021/11/26 11:50:55;;;;;;;2.67;0.90;;;19.90;58.70;;;;;;4784200;30;20172;-81
2021/11/26 11:53:31;;;;;;;2.33;1.10;;;19.90;58.30;;;;;;4795763;29;20179;-83
2021/11/26 11:56:07;;;;;;;1.80;0.90;;;19.90;58.70;;;;;;4781392;30;20183;-81
2021/11/26 11:58:47;;;;;;;5.65;1.40;;;19.90;58.40;;;;;;4794414;29;20167;-81
2021/11/26 12:01:22;;;;;;;2.42;1.50;;;19.90;58.30;;;;;;4762909;30;20184;-83
2021/11/26 12:03:48;;;;;;;3.63;1.20;;;19.90;58.30;;;;;;4773257;30;20620;-82
2021/11/26 12:06:14;;;;;;;2.40;1.20;;;19.90;58.70;;;;;;4778938;30;20250;-82
2021/11/26 12:08:49;;;;;;;2.58;1.13;;;19.90;58.10;;;;;;4794329;29;20737;-83
2021/11/26 12:11:28;;;;;;;3.47;1.10;;;19.90;58.20;;;;;;4778787;30;20167;-82
2021/11/26 12:14:06;;;;;;;1.60;1.00;;;19.90;58.70;;;;;;4794637;30;20262;-82
2021/11/26 12:16:42;;;;;;;1.63;1.13;;;19.90;57.40;;;;;;4762398;30;20186;-83
2021/11/26 12:19:16;;;;;;;1.95;1.13;;;19.90;58.00;;;;;;4763992;30;20198;-82
2021/11/26 12:21:45;;;;;;;3.80;1.17;;;19.90;58.60;;;;;;4777267;30;20264;-83
2021/11/26 12:24:17;;;;;;;2.28;1.20;;;19.90;58.80;;;;;;4762617;30;20198;-82
2021/11/26 12:26:49;;;;;;;1.30;0.98;;;19.90;59.10;;;;;;4791587;30;20243;-82
2021/11/26 12:29:16;;;;;;;2.35;1.20;;;19.90;58.70;;;;;;4778893;30;20163;-82
2021/11/26 12:31:41;;;;;;;1.92;1.10;;;19.90;58.30;;;;;;4763327;30;20164;-82
2021/11/26 12:34:10;;;;;;;3.05;1.25;;;19.80;58.40;;;;;;4763831;30;20250;-82
2021/11/26 12:36:42;;;;;;;2.30;1.05;;;19.90;58.50;;;;;;4763913;30;20171;-82
2021/11/26 12:39:14;;;;;;;2.58;1.15;;;19.90;58.60;;;;;;4762537;30;20167;-81
2021/11/26 12:41:42;;;;;;;2.35;1.30;;;19.90;58.80;;;;;;4762765;30;20547;-82
2021/11/26 12:44:12;;;;;;;3.20;1.23;;;19.90;57.90;;;;;;4776596;30;20196;-81
2021/11/26 12:46:39;;;;;;;3.10;1.30;;;19.90;58.20;;;;;;4776599;30;20171;-82
2021/11/26 12:49:29;;;;;;;1.50;1.00;;;19.80;59.20;;;;;;4777557;30;20171;-82
2021/11/26 12:52:02;;;;;;;2.15;1.02;;;19.90;58.60;;;;;;4780667;30;20197;-82
2021/11/26 12:54:40;;;;;;;1.98;1.08;;;19.90;57.70;;;;;;4775995;30;20180;-82